Time;durP1;ratioP1;P1;durP2;ratioP2;P2;SDS_P1;SDS_P2;PMS_P1;PMS_P2;Temp;Humidity;BMP_temperature;BMP_pressure;BME280_temperature;BME280_humidity;BME280_pressure;Samples;Min_cycle;Max_cycle;Signal;HPM_P1;HPM_P2
2022/03/09 00:01:30;;;;;;;9.63;5.40;;;3.30;36.80;;;3.85;34.55;98129.47;6235291;23;20214;-39
2022/03/09 00:03:59;;;;;;;10.20;5.80;;;3.20;36.90;;;3.83;34.54;98139.28;6235775;23;20012;-39
2022/03/09 00:06:27;;;;;;;10.03;5.33;;;3.20;37.10;;;3.81;34.40;98135.91;6233324;23;20050;-39
2022/03/09 00:08:55;;;;;;;9.20;5.70;;;3.20;37.20;;;3.77;34.82;98139.69;6235366;23;20030;-39
2022/03/09 00:11:26;;;;;;;9.00;5.60;;;3.10;37.30;;;3.73;35.01;98141.69;6245637;23;20494;-39
2022/03/09 00:13:54;;;;;;;10.83;6.00;;;3.10;37.30;;;3.70;34.88;98137.50;6235010;23;20321;-39
2022/03/09 00:16:22;;;;;;;9.13;5.00;;;3.10;37.40;;;3.70;34.75;98139.25;6246148;23;20302;-39
2022/03/09 00:18:50;;;;;;;10.00;5.83;;;3.10;37.40;;;3.69;34.47;98145.50;6233400;23;20022;-39
2022/03/09 00:21:18;;;;;;;12.60;5.73;;;3.10;37.40;;;3.69;34.88;98137.59;6207411;23;20016;-39
2022/03/09 00:23:48;;;;;;;9.13;5.83;;;3.10;37.40;;;3.70;34.61;98148.03;6235723;23;20213;-39
2022/03/09 00:26:15;;;;;;;9.83;5.90;;;3.10;37.40;;;3.68;34.92;98149.06;6235599;23;20030;-39
2022/03/09 00:28:43;;;;;;;8.23;5.27;;;3.00;37.40;;;3.63;34.99;98143.28;6234940;23;20024;-39
2022/03/09 00:31:11;;;;;;;9.63;5.63;;;3.00;37.70;;;3.58;34.89;98150.66;6234446;23;20042;-39
2022/03/09 00:33:40;;;;;;;11.93;6.13;;;2.90;38.00;;;3.54;34.73;98157.91;6234394;23;20027;-39
2022/03/09 00:36:08;;;;;;;9.83;5.73;;;2.80;38.10;;;3.47;35.11;98157.50;6234804;23;20024;-39
2022/03/09 00:38:36;;;;;;;9.67;5.83;;;2.70;38.50;;;3.37;34.84;98166.94;6234650;23;20012;-39
2022/03/09 00:41:04;;;;;;;9.20;5.63;;;2.60;39.20;;;3.30;35.39;98161.25;6234106;23;20024;-39
2022/03/09 00:43:35;;;;;;;8.13;5.30;;;2.50;39.30;;;3.22;35.44;98160.06;6235437;23;20012;-39
2022/03/09 00:46:03;;;;;;;11.50;7.27;;;2.30;40.00;;;3.13;35.42;98159.75;6231962;23;20024;-39
2022/03/09 00:48:32;;;;;;;12.37;6.03;;;2.30;40.00;;;3.05;35.50;98156.78;6237135;23;20015;-39
2022/03/09 00:50:59;;;;;;;11.00;6.30;;;2.30;40.40;;;3.02;36.16;98166.66;6238075;23;20442;-39
2022/03/09 00:53:27;;;;;;;12.73;6.40;;;2.20;40.50;;;2.94;36.19;98161.91;6235376;23;20217;-39
2022/03/09 00:55:55;;;;;;;10.00;6.10;;;2.10;40.70;;;2.86;36.00;98158.94;6238054;23;20023;-39
2022/03/09 00:58:23;;;;;;;12.50;6.63;;;2.00;41.10;;;2.76;36.06;98161.34;6238420;23;20027;-39
2022/03/09 01:00:51;;;;;;;11.77;6.07;;;1.80;42.10;;;2.67;36.21;98156.66;6237690;23;20020;-39
2022/03/09 01:03:19;;;;;;;15.03;6.83;;;1.80;41.10;;;2.63;36.30;98158.66;6236694;23;20024;-39
2022/03/09 01:05:47;;;;;;;9.17;6.10;;;1.70;41.20;;;2.60;36.32;98150.09;6237246;23;20020;-39
2022/03/09 01:08:15;;;;;;;10.80;5.70;;;1.70;41.10;;;2.55;36.66;98147.78;6234584;23;20028;-40
2022/03/09 01:10:43;;;;;;;15.20;5.90;;;1.60;41.30;;;2.49;36.51;98146.38;6236616;23;20020;-39
2022/03/09 01:13:10;;;;;;;9.97;6.10;;;1.60;41.60;;;2.45;36.57;98144.06;6236681;23;20416;-39
2022/03/09 01:15:38;;;;;;;9.97;5.87;;;1.50;42.10;;;2.42;36.58;98152.13;6235440;23;20035;-39
2022/03/09 01:18:06;;;;;;;9.17;5.80;;;1.50;41.90;;;2.37;37.09;98152.44;6236332;23;20222;-39
2022/03/09 01:20:34;;;;;;;11.37;5.77;;;1.50;42.00;;;2.36;37.09;98146.34;6235456;23;20182;-39
2022/03/09 01:23:02;;;;;;;10.53;6.60;;;1.50;42.00;;;2.34;37.32;98150.00;6238306;23;20387;-39
2022/03/09 01:25:30;;;;;;;12.57;6.33;;;1.50;42.10;;;2.30;36.83;98145.88;6235940;23;20038;-39
2022/03/09 01:27:58;;;;;;;8.77;5.33;;;1.50;42.20;;;2.29;36.75;98146.84;6235882;23;20020;-39
2022/03/09 01:30:26;;;;;;;9.13;5.10;;;1.50;42.10;;;2.28;37.10;98143.34;6237778;23;20020;-39
2022/03/09 01:32:54;;;;;;;9.37;5.20;;;1.50;42.00;;;2.28;36.83;98137.25;6235939;23;20310;-39
2022/03/09 01:35:21;;;;;;;10.57;6.20;;;1.50;42.00;;;2.28;37.47;98145.97;6236524;23;20016;-39
2022/03/09 01:37:50;;;;;;;10.03;5.40;;;1.60;41.50;;;2.30;37.34;98143.25;6209371;23;20218;-39
2022/03/09 01:40:18;;;;;;;7.77;5.33;;;1.60;41.40;;;2.33;37.38;98153.59;6235398;23;20016;-39
2022/03/09 01:42:46;;;;;;;11.43;5.80;;;1.70;41.40;;;2.30;37.66;98146.72;6235349;23;20330;-39
2022/03/09 01:45:18;;;;;;;11.13;6.60;;;1.70;41.90;;;2.31;37.07;98144.94;6234183;23;20192;-39
2022/03/09 01:47:47;;;;;;;13.33;5.83;;;1.60;41.80;;;2.32;37.08;98150.09;6245579;23;20202;-39
2022/03/09 01:50:15;;;;;;;8.87;5.30;;;1.70;41.40;;;2.31;36.90;98145.78;6235300;23;20226;-39
2022/03/09 01:52:43;;;;;;;11.53;7.30;;;1.70;42.00;;;2.32;37.65;98128.22;6237804;23;20030;-39
2022/03/09 01:55:12;;;;;;;9.60;6.27;;;1.70;41.80;;;2.29;37.61;98125.81;6235944;23;20199;-39
2022/03/09 01:57:41;;;;;;;11.10;5.83;;;1.60;41.90;;;2.28;37.15;98130.19;6234917;23;20024;-39
2022/03/09 02:00:10;;;;;;;8.67;5.87;;;1.60;42.10;;;2.25;37.02;98127.78;6235963;23;20361;-39
2022/03/09 02:02:37;;;;;;;8.17;5.67;;;1.60;41.60;;;2.22;37.31;98121.88;6237048;23;20023;-39
2022/03/09 02:05:07;;;;;;;10.43;6.37;;;1.50;41.90;;;2.18;37.62;98123.84;6235078;23;20328;-39
2022/03/09 02:10:23;;;;;;;10.20;6.67;;;1.40;42.60;;;2.05;37.95;98123.78;6225227;23;20016;-39
2022/03/09 02:12:51;;;;;;;10.57;6.20;;;1.30;42.90;;;1.99;37.69;98124.16;6236857;23;20028;-39
2022/03/09 02:15:19;;;;;;;13.67;7.10;;;1.30;43.10;;;1.96;38.27;98119.97;6235654;23;20447;-39
2022/03/09 02:17:47;;;;;;;9.63;6.17;;;1.20;43.20;;;1.92;37.61;98123.72;6234197;23;20016;-39
2022/03/09 02:20:15;;;;;;;9.27;5.17;;;1.20;42.80;;;1.92;38.36;98115.84;6236124;23;20020;-39
2022/03/09 02:22:44;;;;;;;8.93;5.17;;;1.20;42.80;;;1.94;37.94;98119.22;6235901;23;20052;-39
2022/03/09 02:25:16;;;;;;;8.53;5.10;;;1.30;42.50;;;1.95;38.28;98113.00;6235664;23;20016;-39
2022/03/09 02:27:45;;;;;;;7.17;4.57;;;1.30;42.50;;;1.98;38.32;98109.34;6234918;23;20028;-39
2022/03/09 02:30:18;;;;;;;8.20;4.97;;;1.40;42.10;;;2.03;38.50;98109.06;6234242;23;20020;-39
2022/03/09 02:32:48;;;;;;;7.73;4.67;;;1.40;42.00;;;2.05;38.48;98115.88;6220865;23;20302;-39
2022/03/09 02:35:19;;;;;;;8.47;4.60;;;1.40;41.90;;;2.08;37.91;98104.38;6235283;23;20170;-39
2022/03/09 02:37:47;;;;;;;7.87;5.10;;;1.50;42.00;;;2.09;37.95;98104.25;6237397;23;20226;-39
2022/03/09 02:40:17;;;;;;;10.03;5.27;;;1.50;41.90;;;2.11;37.89;98094.53;6233033;23;20016;-39
2022/03/09 02:42:46;;;;;;;9.07;4.87;;;1.50;41.70;;;2.15;38.08;98096.00;6235655;23;20024;-39
2022/03/09 02:45:14;;;;;;;9.17;4.73;;;1.60;41.70;;;2.19;38.06;98095.78;6235766;23;20030;-39
2022/03/09 02:47:43;;;;;;;6.73;4.30;;;1.60;41.40;;;2.22;37.83;98096.44;6236223;23;20016;-39
2022/03/09 02:50:15;;;;;;;11.03;5.27;;;1.70;41.40;;;2.26;38.12;98103.19;6235092;23;20023;-39
2022/03/09 02:52:45;;;;;;;10.47;4.83;;;1.70;41.40;;;2.30;37.85;98095.97;6234268;23;20469;-39
2022/03/09 02:55:13;;;;;;;8.43;5.00;;;1.70;41.30;;;2.32;38.24;98100.16;6235786;23;20016;-39
2022/03/09 02:57:42;;;;;;;7.77;5.00;;;1.70;41.30;;;2.34;37.59;98102.69;6234806;23;20020;-39
2022/03/09 03:00:11;;;;;;;10.33;5.13;;;1.80;41.30;;;2.30;38.29;98101.22;6234715;23;20019;-39
2022/03/09 03:02:39;;;;;;;7.63;5.00;;;1.70;41.40;;;2.26;37.97;98107.59;6236243;23;20026;-39
2022/03/09 03:05:09;;;;;;;8.00;5.17;;;1.60;41.60;;;2.22;38.13;98106.13;6236170;23;20020;-39
2022/03/09 03:07:37;;;;;;;11.07;5.90;;;1.50;41.90;;;2.17;37.84;98111.66;6235763;23;20024;-39
2022/03/09 03:10:05;;;;;;;10.77;6.23;;;1.40;42.10;;;2.13;38.40;98112.78;6209452;23;20344;-39
2022/03/09 03:12:33;;;;;;;10.63;6.30;;;1.30;42.30;;;2.06;38.80;98114.13;6236882;23;20213;-39
2022/03/09 03:15:04;;;;;;;10.27;5.47;;;1.30;42.70;;;2.02;38.33;98118.72;6235091;23;20020;-39
2022/03/09 03:17:36;;;;;;;7.97;4.87;;;1.20;42.90;;;2.03;38.37;98119.56;6234830;23;20031;-39
2022/03/09 03:20:06;;;;;;;7.23;4.87;;;1.20;43.10;;;1.99;38.49;98118.06;6246077;23;20018;-39
2022/03/09 03:22:34;;;;;;;9.27;5.50;;;1.20;43.10;;;1.95;38.31;98128.75;6237356;23;20012;-39
2022/03/09 03:25:02;;;;;;;11.00;5.77;;;1.20;43.20;;;1.92;38.34;98125.47;6233900;23;20019;-39
2022/03/09 03:27:30;;;;;;;10.80;7.40;;;1.20;43.40;;;1.90;38.74;98128.22;6235043;23;20023;-39
2022/03/09 03:29:58;;;;;;;10.93;6.50;;;1.10;43.20;;;1.88;38.23;98126.59;6234703;23;20016;-39
2022/03/09 03:32:25;;;;;;;10.57;5.53;;;1.10;43.50;;;1.83;38.03;98126.91;6235661;23;20024;-39
2022/03/09 03:34:53;;;;;;;6.93;5.13;;;1.10;43.50;;;1.77;38.59;98127.28;6235468;23;20026;-39
2022/03/09 03:37:21;;;;;;;9.20;5.40;;;1.00;43.50;;;1.71;38.22;98130.28;6235687;23;20019;-39
2022/03/09 03:39:49;;;;;;;9.47;5.47;;;0.90;43.70;;;1.68;38.63;98126.06;6233692;23;20110;-39
2022/03/09 03:42:17;;;;;;;11.10;6.50;;;1.00;43.60;;;1.64;38.45;98135.06;6235387;23;20016;-39
2022/03/09 03:44:44;;;;;;;9.50;5.43;;;0.90;43.70;;;1.63;38.84;98137.75;6236511;23;20012;-39
2022/03/09 03:47:12;;;;;;;10.27;5.63;;;0.90;44.10;;;1.60;38.97;98136.19;6235035;23;20012;-39
2022/03/09 03:49:40;;;;;;;9.57;5.13;;;0.90;43.90;;;1.57;39.43;98136.34;6235249;23;20023;-39
2022/03/09 03:52:08;;;;;;;8.37;5.00;;;0.90;43.80;;;1.57;38.98;98141.59;6234981;23;20016;-39
2022/03/09 03:54:36;;;;;;;10.30;6.17;;;0.90;43.90;;;1.56;39.02;98139.94;6236373;23;20217;-39
2022/03/09 03:57:04;;;;;;;10.00;5.53;;;0.90;44.20;;;1.53;39.59;98132.22;6233996;23;20020;-39
2022/03/09 03:59:32;;;;;;;9.97;6.43;;;0.80;44.70;;;1.48;38.99;98135.16;6234793;23;20016;-39
2022/03/09 04:02:00;;;;;;;11.77;6.17;;;0.80;44.80;;;1.47;39.52;98132.59;6236170;23;20355;-39
2022/03/09 04:04:28;;;;;;;11.87;5.60;;;0.80;44.80;;;1.46;39.25;98125.69;6207077;23;20016;-39
2022/03/09 04:06:56;;;;;;;10.20;6.57;;;0.80;44.30;;;1.45;39.74;98137.09;6233665;23;20024;-39
2022/03/09 04:09:24;;;;;;;11.63;6.13;;;0.80;44.60;;;1.43;39.00;98133.72;6231703;23;20024;-39
2022/03/09 04:11:52;;;;;;;11.87;5.67;;;0.80;44.70;;;1.41;39.20;98140.84;6236782;23;20030;-39
2022/03/09 04:14:22;;;;;;;10.60;5.73;;;0.70;44.70;;;1.39;39.90;98138.31;6234458;23;20016;-39
2022/03/09 04:16:50;;;;;;;10.30;5.80;;;0.70;44.90;;;1.37;39.17;98133.16;6234943;23;20026;-39
2022/03/09 04:19:18;;;;;;;10.63;5.90;;;0.70;44.90;;;1.37;39.17;98130.53;6234790;23;20314;-39
2022/03/09 04:21:46;;;;;;;11.23;7.20;;;0.70;45.00;;;1.36;39.55;98122.78;6235473;23;20023;-39
2022/03/09 04:24:13;;;;;;;11.80;7.50;;;0.70;45.00;;;1.31;39.32;98130.91;6236188;23;20019;-39
2022/03/09 04:26:41;;;;;;;14.90;9.30;;;0.60;45.00;;;1.29;39.97;98135.41;6235092;23;20027;-39
2022/03/09 04:29:09;;;;;;;15.33;10.87;;;0.60;45.00;;;1.25;39.36;98133.91;6235011;23;20023;-39
2022/03/09 04:31:38;;;;;;;15.10;10.70;;;0.60;45.40;;;1.20;39.92;98135.94;6236587;23;20016;-39
2022/03/09 04:34:08;;;;;;;12.30;8.50;;;0.50;45.40;;;1.13;39.59;98134.63;6233093;23;20026;-39
2022/03/09 04:36:36;;;;;;;14.37;8.00;;;0.40;46.20;;;1.01;40.63;98132.69;6233021;23;20016;-39
2022/03/09 04:39:06;;;;;;;13.10;6.90;;;0.20;45.90;;;1.01;39.79;98135.31;6232016;23;20020;-39
2022/03/09 04:41:33;;;;;;;13.97;7.43;;;0.30;46.10;;;1.00;39.74;98136.28;6234847;23;20326;-39
2022/03/09 04:44:01;;;;;;;15.37;7.30;;;0.30;46.10;;;1.03;39.60;98136.94;6236562;23;20022;-39
2022/03/09 04:46:30;;;;;;;9.20;6.50;;;0.40;45.90;;;1.03;40.74;98128.22;6234215;23;20012;-39
2022/03/09 04:48:59;;;;;;;15.03;6.40;;;0.30;45.70;;;1.05;40.65;98128.97;6234055;23;20016;-39
2022/03/09 04:51:27;;;;;;;11.53;6.67;;;0.40;45.60;;;1.07;39.93;98132.38;6234816;23;20016;-39
2022/03/09 04:53:55;;;;;;;11.40;6.30;;;0.40;45.40;;;1.06;40.21;98125.44;6234892;23;20024;-39
2022/03/09 04:56:22;;;;;;;10.67;6.40;;;0.40;45.40;;;1.11;40.48;98129.47;6233904;23;20028;-39
2022/03/09 04:58:50;;;;;;;10.87;5.03;;;0.50;45.00;;;1.14;40.66;98118.81;6233991;23;20012;-39
2022/03/09 05:01:18;;;;;;;8.60;5.03;;;0.60;44.70;;;1.14;39.83;98120.56;6232658;23;20016;-40
2022/03/09 05:03:46;;;;;;;8.47;5.13;;;0.70;44.50;;;1.17;40.04;98123.84;6234079;23;20024;-39
2022/03/09 05:06:16;;;;;;;10.30;5.07;;;0.70;45.30;;;1.21;39.94;98123.69;6234178;23;20027;-39
2022/03/09 05:08:43;;;;;;;10.53;5.80;;;0.70;44.40;;;1.24;39.54;98116.47;6208109;23;20015;-39
2022/03/09 05:11:11;;;;;;;8.47;4.80;;;0.70;44.50;;;1.24;39.73;98126.97;6235533;23;20028;-39
2022/03/09 05:13:39;;;;;;;10.43;5.23;;;0.70;44.70;;;1.21;40.03;98128.94;6235279;23;20030;-39
2022/03/09 05:16:08;;;;;;;9.80;5.27;;;0.60;44.50;;;1.23;39.65;98134.94;6233422;23;20348;-39
2022/03/09 05:18:40;;;;;;;13.50;6.40;;;0.60;44.60;;;1.22;39.75;98130.59;6234712;23;20024;-39
2022/03/09 05:21:09;;;;;;;11.17;7.23;;;0.60;44.60;;;1.22;39.57;98131.44;6219885;23;20016;-39
2022/03/09 05:23:37;;;;;;;11.67;6.07;;;0.70;44.50;;;1.21;39.55;98128.94;6235826;23;20349;-39
2022/03/09 05:26:05;;;;;;;9.83;6.10;;;0.60;45.00;;;1.18;40.41;98133.44;6236105;23;20020;-39
2022/03/09 05:28:34;;;;;;;10.03;5.47;;;0.60;45.00;;;1.16;40.12;98135.31;6234883;23;20086;-39
2022/03/09 05:31:02;;;;;;;16.30;8.57;;;0.50;45.00;;;1.16;40.62;98143.16;6209458;23;20356;-39
2022/03/09 05:33:31;;;;;;;17.33;8.33;;;0.60;44.70;;;1.16;40.57;98139.69;6207779;23;20019;-39
2022/03/09 05:35:58;;;;;;;10.93;7.00;;;0.70;44.70;;;1.24;40.28;98142.72;6236542;23;20027;-39
2022/03/09 05:38:27;;;;;;;12.23;7.27;;;0.80;44.60;;;1.27;40.33;98157.41;6234956;23;20035;-39
2022/03/09 05:40:55;;;;;;;14.93;8.07;;;0.70;44.40;;;1.20;40.49;98156.91;6236211;23;20019;-39
2022/03/09 05:43:22;;;;;;;24.27;11.57;;;0.60;44.80;;;1.14;40.04;98158.16;6236613;23;20020;-39
2022/03/09 05:45:50;;;;;;;23.90;8.83;;;0.50;45.00;;;1.11;40.58;98162.72;6236293;23;20019;-39
2022/03/09 05:48:19;;;;;;;21.50;9.90;;;0.50;45.60;;;1.11;39.98;98167.97;6235638;23;20020;-39
2022/03/09 05:50:47;;;;;;;19.97;10.07;;;0.50;45.10;;;1.12;40.29;98170.47;6234827;23;20330;-40
2022/03/09 05:53:16;;;;;;;18.00;9.40;;;0.50;46.20;;;1.10;40.29;98179.38;6236252;23;20306;-39
2022/03/09 05:55:46;;;;;;;16.40;8.90;;;0.50;45.20;;;1.10;40.02;98176.75;6235359;23;20020;-40
2022/03/09 05:58:13;;;;;;;14.77;7.83;;;0.50;45.50;;;1.11;40.67;98179.28;6210941;23;20020;-40
2022/03/09 06:00:41;;;;;;;14.33;8.03;;;0.50;45.30;;;1.12;40.75;98174.88;6235626;23;20019;-39
2022/03/09 06:03:09;;;;;;;15.37;6.90;;;0.50;45.20;;;1.12;40.46;98182.75;6235966;23;20026;-39
2022/03/09 06:05:37;;;;;;;17.57;9.13;;;0.50;45.20;;;1.13;40.95;98177.44;6210130;23;20024;-39
2022/03/09 06:08:05;;;;;;;13.33;8.13;;;0.60;44.90;;;1.18;40.14;98193.75;6235784;23;20016;-39
2022/03/09 06:10:33;;;;;;;25.60;10.17;;;0.70;44.80;;;1.19;40.08;98194.59;6235045;23;20026;-40
2022/03/09 06:13:01;;;;;;;70.00;37.43;;;0.70;45.00;;;1.19;40.63;98197.22;6237456;23;20020;-39
2022/03/09 06:15:28;;;;;;;30.23;20.90;;;0.60;44.90;;;1.17;41.07;98189.44;6209246;23;20012;-40
2022/03/09 06:17:57;;;;;;;20.27;13.77;;;0.60;45.00;;;1.17;40.25;98193.84;6234659;23;20030;-39
2022/03/09 06:20:28;;;;;;;13.57;12.00;;;0.60;45.20;;;1.14;40.42;98199.25;6236148;23;20031;-40
2022/03/09 06:22:55;;;;;;;14.33;8.53;;;0.50;45.20;;;1.15;40.95;98198.31;6235319;23;20012;-40
2022/03/09 06:25:23;;;;;;;12.80;8.50;;;0.50;45.30;;;1.17;40.79;98205.16;6235922;23;20020;-45
2022/03/09 06:27:54;;;;;;;11.43;7.17;;;0.60;45.20;;;1.21;40.90;98202.38;6235173;23;20016;-40
2022/03/09 06:30:28;;;;;;;11.70;7.20;;;0.60;45.20;;;1.17;40.99;98202.53;6234283;23;20042;-40
2022/03/09 06:32:56;;;;;;;10.37;6.30;;;0.60;45.50;;;1.18;40.32;98201.63;6235299;23;20047;-40
2022/03/09 06:35:24;;;;;;;10.67;5.73;;;0.60;45.40;;;1.21;40.86;98200.59;6234318;23;20018;-40
2022/03/09 06:37:53;;;;;;;9.33;6.13;;;0.60;45.40;;;1.24;40.71;98200.41;6235295;23;20016;-40
2022/03/09 06:40:21;;;;;;;8.90;5.47;;;0.70;45.30;;;1.28;41.18;98193.19;6234653;23;20027;-40
2022/03/09 06:42:49;;;;;;;12.70;7.33;;;0.80;45.00;;;1.33;41.04;98202.50;6210354;23;20336;-40
2022/03/09 06:45:23;;;;;;;8.90;5.50;;;0.90;44.70;;;1.40;40.51;98204.75;6244862;23;20022;-40
2022/03/09 06:47:52;;;;;;;10.87;5.93;;;0.90;44.80;;;1.43;40.41;98215.91;6235978;23;20035;-40
2022/03/09 06:50:20;;;;;;;20.20;6.87;;;1.00;45.20;;;1.46;40.96;98217.53;6234305;23;20019;-39
2022/03/09 06:52:48;;;;;;;16.87;7.77;;;1.00;45.40;;;1.46;40.88;98220.16;6234867;23;20026;-39
2022/03/09 06:55:16;;;;;;;11.47;7.40;;;1.00;45.70;;;1.48;40.94;98215.66;6232574;23;20027;-39
2022/03/09 06:57:44;;;;;;;16.87;8.20;;;1.00;45.90;;;1.46;41.12;98215.75;6235043;23;20190;-40
2022/03/09 07:00:16;;;;;;;17.07;9.10;;;1.00;46.00;;;1.46;41.07;98222.78;6236782;23;20012;-40
2022/03/09 07:02:45;;;;;;;15.77;6.70;;;0.90;46.60;;;1.44;40.89;98232.53;6245992;23;20407;-39
2022/03/09 07:05:14;;;;;;;11.43;6.63;;;0.90;47.00;;;1.43;41.84;98230.81;6234843;23;20016;-39
2022/03/09 07:07:42;;;;;;;11.10;5.87;;;0.90;47.10;;;1.43;41.20;98238.69;6232656;23;20034;-39
2022/03/09 07:10:12;;;;;;;10.50;6.50;;;0.90;46.50;;;1.47;41.39;98246.28;6231527;23;20020;-39
2022/03/09 07:12:45;;;;;;;12.37;6.27;;;0.90;46.00;;;1.51;41.48;98236.44;6246676;23;20164;-39
2022/03/09 07:15:15;;;;;;;15.83;7.67;;;1.00;45.70;;;1.55;40.91;98241.44;6238428;23;20338;-39
2022/03/09 07:17:45;;;;;;;16.60;8.10;;;1.10;45.80;;;1.61;41.44;98242.00;6235210;23;20023;-39
2022/03/09 07:20:14;;;;;;;14.37;7.20;;;1.20;46.30;;;1.66;41.75;98247.84;6234471;23;20020;-39
2022/03/09 07:22:44;;;;;;;12.43;7.17;;;1.20;46.60;;;1.68;41.53;98248.59;6235128;23;20012;-39
2022/03/09 07:25:14;;;;;;;11.20;8.10;;;1.30;47.00;;;1.71;42.06;98251.03;6234394;23;20016;-39
2022/03/09 07:27:42;;;;;;;14.60;6.47;;;1.30;46.80;;;1.73;42.03;98252.63;6233758;23;20031;-39
2022/03/09 07:30:11;;;;;;;12.37;6.80;;;1.30;46.50;;;1.75;41.91;98256.00;6234844;23;20016;-40
2022/03/09 07:32:40;;;;;;;11.20;6.40;;;1.40;46.10;;;1.82;41.67;98261.72;6235569;23;20028;-40
2022/03/09 07:35:21;;;;;;;12.80;7.30;;;1.40;45.80;;;1.83;41.96;98247.69;6234564;23;20195;-39
2022/03/09 07:37:51;;;;;;;11.70;6.80;;;1.50;45.60;;;1.89;41.51;98249.94;6234500;23;20035;-39
2022/03/09 07:40:20;;;;;;;11.00;6.07;;;1.60;45.20;;;1.96;41.28;98251.25;6233916;23;20028;-39
2022/03/09 07:42:49;;;;;;;10.80;6.27;;;1.60;45.00;;;1.99;41.19;98254.63;6235850;23;20018;-39
2022/03/09 07:45:22;;;;;;;9.68;6.20;;;1.60;45.00;;;2.03;41.43;98258.75;6209556;23;20024;-39
2022/03/09 07:47:50;;;;;;;14.73;7.63;;;1.70;45.30;;;2.08;41.12;98267.22;6234930;23;20018;-39
2022/03/09 07:50:17;;;;;;;11.37;6.23;;;1.70;45.40;;;2.10;41.21;98263.56;6235039;23;20015;-39
2022/03/09 07:52:45;;;;;;;13.37;6.63;;;1.70;45.70;;;2.13;41.70;98265.13;6234874;23;20340;-38
2022/03/09 07:55:13;;;;;;;12.67;7.10;;;1.70;45.40;;;2.20;41.30;98276.13;6234117;23;20020;-38
2022/03/09 07:57:41;;;;;;;13.43;6.63;;;1.80;45.40;;;2.22;41.29;98267.22;6233857;23;20188;-38
2022/03/09 08:00:10;;;;;;;15.63;6.70;;;1.90;45.10;;;2.29;41.12;98273.78;6233911;23;20026;-39
2022/03/09 08:02:43;;;;;;;11.65;6.55;;;2.00;44.90;;;2.34;41.68;98269.09;6245930;23;20020;-39
2022/03/09 08:05:12;;;;;;;9.93;6.13;;;2.10;44.50;;;2.42;41.11;98280.91;6234023;23;20205;-38
2022/03/09 08:07:40;;;;;;;10.57;6.43;;;2.20;44.30;;;2.47;41.21;98274.44;6233377;23;20034;-39
2022/03/09 08:10:10;;;;;;;12.57;7.20;;;2.20;44.20;;;2.52;41.17;98279.41;6233717;23;20016;-39
2022/03/09 08:12:39;;;;;;;12.47;7.07;;;2.20;44.30;;;2.56;40.82;98280.91;6235688;23;20012;-39
2022/03/09 08:15:10;;;;;;;14.93;7.27;;;2.20;44.30;;;2.62;41.16;98277.03;6237638;23;20019;-39
2022/03/09 08:17:38;;;;;;;10.27;6.77;;;2.30;44.30;;;2.67;40.98;98283.69;6235041;23;20067;-39
2022/03/09 08:20:07;;;;;;;14.80;7.13;;;2.40;44.40;;;2.70;41.13;98283.53;6234940;23;20209;-39
2022/03/09 08:22:39;;;;;;;11.70;7.10;;;2.40;44.70;;;2.73;41.24;98283.34;6240637;23;20023;-39
2022/03/09 08:25:07;;;;;;;14.77;6.80;;;2.40;44.70;;;2.78;40.80;98280.41;6256267;23;20020;-39
2022/03/09 08:27:35;;;;;;;13.30;7.47;;;2.50;44.70;;;2.84;41.34;98281.81;6251246;23;20020;-39
2022/03/09 08:30:06;;;;;;;10.93;7.37;;;2.50;44.80;;;2.89;41.02;98285.84;6250652;23;20016;-39
2022/03/09 08:32:34;;;;;;;11.77;6.93;;;2.60;44.80;;;2.91;41.16;98291.00;6258669;23;20187;-39
2022/03/09 08:35:04;;;;;;;13.33;7.33;;;2.60;44.70;;;2.95;41.31;98282.81;6249100;23;20281;-39
2022/03/09 08:37:32;;;;;;;9.90;6.83;;;2.60;44.70;;;3.00;41.28;98286.94;6249141;23;20024;-39
2022/03/09 08:39:59;;;;;;;12.50;6.93;;;2.70;44.80;;;3.04;41.02;98283.16;6250304;23;20031;-39
2022/03/09 08:42:27;;;;;;;12.67;7.23;;;2.70;44.80;;;3.09;41.21;98283.72;6251225;23;20022;-39
2022/03/09 08:44:56;;;;;;;11.43;7.53;;;2.80;44.80;;;3.15;41.36;98284.16;6250411;23;20018;-39
2022/03/09 08:47:24;;;;;;;11.57;7.10;;;2.90;44.70;;;3.20;41.08;98286.50;6249832;23;20016;-39
2022/03/09 08:49:51;;;;;;;12.97;7.50;;;2.90;44.70;;;3.23;41.37;98285.47;6244478;23;20332;-39
2022/03/09 08:52:25;;;;;;;11.60;7.50;;;3.00;44.50;;;3.29;41.06;98287.69;6237691;23;20026;-39
2022/03/09 08:54:53;;;;;;;14.40;7.43;;;3.10;44.10;;;3.34;41.07;98289.06;6236012;23;20020;-39
2022/03/09 08:57:21;;;;;;;12.43;7.30;;;3.20;44.00;;;3.43;41.04;98276.25;6236181;23;20023;-39
2022/03/09 08:59:49;;;;;;;13.73;7.33;;;3.20;43.80;;;3.47;40.74;98281.22;6229749;23;20042;-39
2022/03/09 09:02:17;;;;;;;14.63;7.60;;;3.30;43.50;;;3.49;40.46;98284.59;6233664;23;20024;-39
2022/03/09 09:04:46;;;;;;;17.83;7.30;;;3.30;43.20;;;3.60;40.22;98275.97;6232886;23;20024;-39
2022/03/09 09:07:14;;;;;;;16.77;7.30;;;3.40;43.10;;;3.66;40.79;98274.72;6234062;23;20457;-39
2022/03/09 09:09:42;;;;;;;16.03;7.10;;;3.50;43.10;;;3.74;40.37;98272.41;6235149;23;20019;-39
2022/03/09 09:12:11;;;;;;;12.27;6.97;;;3.50;43.10;;;3.80;40.06;98266.75;6236590;23;20020;-39
2022/03/09 09:14:39;;;;;;;13.80;7.20;;;3.60;42.80;;;3.86;39.98;98261.06;6236110;23;20024;-39
2022/03/09 09:17:07;;;;;;;12.73;7.77;;;3.70;42.30;;;3.91;40.01;98258.94;6235938;23;20024;-39
2022/03/09 09:19:55;;;;;;;15.50;7.90;;;3.70;42.40;;;4.00;39.76;98265.41;6233735;23;20028;-39
2022/03/09 09:22:23;;;;;;;13.23;7.87;;;3.80;42.30;;;4.07;40.16;98261.41;6237773;23;20237;-39
2022/03/09 09:24:50;;;;;;;13.77;7.20;;;3.90;42.20;;;4.13;40.04;98258.34;6237153;23;20012;-39
2022/03/09 09:27:18;;;;;;;12.43;7.40;;;4.00;42.20;;;4.23;39.95;98262.97;6236962;23;20019;-40
2022/03/09 09:30:07;;;;;;;17.93;7.07;;;4.10;42.00;;;4.30;39.81;98256.31;6245372;23;20012;-39
2022/03/09 09:32:35;;;;;;;14.50;8.70;;;4.10;41.00;;;4.32;39.42;98252.66;6237569;23;20352;-39
2022/03/09 09:35:03;;;;;;;14.00;8.27;;;4.20;41.20;;;4.38;39.39;98250.50;6236855;23;20217;-39
2022/03/09 09:37:31;;;;;;;13.40;7.77;;;4.20;41.20;;;4.43;39.04;98248.41;6235418;23;20022;-39
2022/03/09 09:39:59;;;;;;;11.10;7.00;;;4.30;41.10;;;4.49;39.67;98246.16;6236778;23;20024;-39
2022/03/09 09:42:33;;;;;;;13.80;8.07;;;4.30;41.30;;;4.55;39.39;98239.63;6236457;23;20012;-39
2022/03/09 09:45:19;;;;;;;13.73;7.63;;;4.40;40.90;;;4.61;39.66;98244.44;6246167;23;20194;-39
2022/03/09 09:47:52;;;;;;;15.87;7.67;;;4.50;41.30;;;4.71;39.57;98249.91;6236350;23;20262;-40
2022/03/09 09:50:20;;;;;;;14.60;9.07;;;4.60;41.00;;;4.81;38.73;98236.91;6234704;23;20012;-39
2022/03/09 09:52:48;;;;;;;15.90;8.20;;;4.70;40.70;;;4.95;39.12;98243.84;6234889;23;20022;-40
2022/03/09 09:55:16;;;;;;;14.87;7.60;;;4.80;40.40;;;4.96;38.40;98237.59;6211326;23;20024;-40
2022/03/09 09:57:47;;;;;;;16.67;8.10;;;4.80;40.20;;;5.00;38.42;98231.16;6236300;23;20016;-39
2022/03/09 10:00:16;;;;;;;15.47;7.63;;;4.90;40.30;;;5.02;38.50;98238.00;6210169;23;20028;-40
2022/03/09 10:02:44;;;;;;;13.87;7.97;;;4.90;40.20;;;5.07;38.43;98233.22;6234038;23;20022;-39
2022/03/09 10:05:16;;;;;;;16.77;9.33;;;5.00;40.10;;;5.14;38.29;98241.56;6234445;23;20008;-39
2022/03/09 10:08:03;;;;;;;17.20;8.27;;;5.00;39.60;;;5.20;37.90;98240.25;6246058;23;20020;-39
2022/03/09 10:10:32;;;;;;;15.33;8.17;;;5.10;39.30;;;5.25;38.87;98246.03;6244124;23;20012;-39
2022/03/09 10:13:21;;;;;;;14.73;8.80;;;5.30;39.60;;;5.32;37.60;98247.25;6209161;23;20208;-39
2022/03/09 10:16:20;;;;;;;14.93;7.90;;;5.30;38.30;;;5.36;38.02;98246.09;6235629;23;20016;-39
2022/03/09 10:18:55;;;;;;;13.33;8.20;;;5.30;38.10;;;5.41;38.01;98245.72;6235426;23;20221;-39
2022/03/09 10:21:29;;;;;;;14.95;9.38;;;5.30;38.90;;;5.52;37.35;98241.34;6246525;23;20012;-39
2022/03/09 10:24:11;;;;;;;14.30;9.67;;;5.40;39.10;;;5.67;37.92;98243.78;6245677;23;20306;-39
2022/03/09 10:26:39;;;;;;;15.17;8.97;;;5.60;38.50;;;5.74;38.04;98242.38;6234733;23;20219;-39
2022/03/09 10:29:11;;;;;;;16.20;8.80;;;5.70;38.80;;;5.83;36.90;98241.66;6234922;23;20020;-39
2022/03/09 10:31:47;;;;;;;16.13;8.63;;;5.80;38.60;;;5.88;37.73;98243.97;6246755;23;20023;-39
2022/03/09 10:34:24;;;;;;;13.50;8.20;;;5.80;38.10;;;5.90;37.50;98244.69;6236222;23;20026;-39
2022/03/09 10:37:04;;;;;;;12.43;8.63;;;5.90;37.60;;;5.87;36.46;98248.41;6208530;23;20444;-39
2022/03/09 10:39:35;;;;;;;20.70;11.57;;;5.90;36.50;;;5.90;36.97;98244.69;6235013;23;20284;-39